In Rescue
 
Open Full Screen Window  High Contrast Mode
May 20, 2019 2:14 PM CDT
Weather Information
Wind Direction
  ---
Wind Speed
  00 kt (0 mph)
Wind Gust
  00 kt (0 mph)
Altimeter
30.17 in
Visibility
10 SM
Temperature
17° C
63° F
Dewpoint
-02° C
28° F
Humidity
27%
1hr Rain Fall
00.00 in.
24hr Rain Fall
00.00 in.
Sky Condition
Clear
VFR

METAR KFOZ 201914Z AUTO 00000KT 10SM CLR 17/M02 A3017 RMK AO2

FAA Disclaimer: The data displayed is for advisory purposes only and is not to be used for flight planning or operations.